Time;durP1;ratioP1;P1;durP2;ratioP2;P2;SDS_P1;SDS_P2;PMS_P1;PMS_P2;Temp;Humidity;BMP_temperature;BMP_pressure;BME280_temperature;BME280_humidity;BME280_pressure;Samples;Min_cycle;Max_cycle;Signal;HPM_P1;HPM_P2
2022/04/04 00:01:35;;;;;;;;;5.00;5.00;17.70;99.90;;;;;;5076983;28;10152;-50
2022/04/04 00:04:05;;;;;;;;;3.50;2.50;17.60;99.90;;;;;;5066841;28;10234;-54
2022/04/04 00:06:35;;;;;;;;;3.00;1.50;17.70;99.90;;;;;;5077056;28;10734;-48
2022/04/04 00:09:05;;;;;;;;;3.00;3.00;17.70;99.90;;;;;;5074591;28;9756;-57
2022/04/04 00:11:36;;;;;;;;;3.75;3.75;17.70;99.90;;;;;;5070573;28;10063;-57
2022/04/04 00:14:07;;;;;;;;;1.75;1.75;17.60;99.90;;;;;;5070630;27;9902;-56
2022/04/04 00:16:39;;;;;;;;;3.25;3.00;17.50;99.90;;;;;;5073088;28;10187;-56
2022/04/04 00:19:09;;;;;;;;;1.00;1.00;17.50;99.90;;;;;;5072410;28;10243;-56
2022/04/04 00:21:39;;;;;;;;;3.75;3.00;17.50;99.90;;;;;;5078543;27;10164;-55
2022/04/04 00:24:10;;;;;;;;;2.00;2.00;17.50;99.90;;;;;;5074229;28;10223;-55
2022/04/04 00:26:41;;;;;;;;;4.00;1.00;17.50;99.90;;;;;;5077782;28;10996;-57
2022/04/04 00:29:12;;;;;;;;;3.50;3.50;17.50;99.90;;;;;;5081865;28;10027;-56
2022/04/04 00:31:42;;;;;;;;;2.00;2.00;17.40;99.90;;;;;;5077440;28;11086;-57
2022/04/04 00:34:14;;;;;;;;;6.50;3.25;17.30;99.90;;;;;;5073172;28;10484;-57
2022/04/04 00:36:45;;;;;;;;;6.25;5.75;17.30;99.90;;;;;;5077313;28;10560;-56
2022/04/04 00:39:19;;;;;;;;;4.75;4.75;17.30;99.90;;;;;;5074673;28;10494;-57
2022/04/04 00:41:51;;;;;;;;;5.25;5.25;17.20;99.90;;;;;;5084564;28;11047;-55
2022/04/04 00:44:22;;;;;;;;;7.75;7.50;17.10;99.90;;;;;;5073987;28;11058;-56
2022/04/04 00:46:53;;;;;;;;;12.25;10.75;17.20;99.90;;;;;;5068277;28;10910;-55
2022/04/04 00:49:24;;;;;;;;;16.75;16.75;17.10;99.90;;;;;;5072274;28;10842;-55
2022/04/04 00:51:55;;;;;;;;;20.50;18.75;17.10;99.90;;;;;;5075027;28;11536;-56
2022/04/04 00:54:26;;;;;;;;;21.50;21.50;16.90;99.90;;;;;;5061386;28;11612;-56
2022/04/04 00:56:57;;;;;;;;;20.50;19.25;16.90;99.90;;;;;;5073723;28;11592;-55
2022/04/04 00:59:29;;;;;;;;;14.00;13.75;16.80;99.90;;;;;;5079757;28;11511;-54
2022/04/04 01:02:00;;;;;;;;;6.25;6.25;16.80;99.90;;;;;;5067987;28;11141;-55
2022/04/04 01:04:31;;;;;;;;;3.75;3.25;16.80;99.90;;;;;;5065534;28;11012;-56
2022/04/04 01:07:03;;;;;;;;;4.00;3.00;16.80;99.90;;;;;;5074118;28;10837;-54
2022/04/04 01:09:33;;;;;;;;;5.50;4.00;16.80;99.90;;;;;;5084750;28;10853;-57
2022/04/04 01:12:10;;;;;;;;;5.00;3.25;16.80;99.90;;;;;;5068210;28;10519;-56
2022/04/04 01:14:41;;;;;;;;;4.00;2.25;16.80;99.90;;;;;;5071063;28;10697;-57
2022/04/04 01:17:12;;;;;;;;;2.00;2.00;16.80;99.90;;;;;;5078079;28;10655;-59
2022/04/04 01:19:44;;;;;;;;;0.00;0.00;16.70;99.90;;;;;;5073794;28;10550;-57
2022/04/04 01:22:16;;;;;;;;;8.00;5.00;16.70;99.90;;;;;;5068188;28;10503;-58
2022/04/04 01:24:46;;;;;;;;;3.00;3.00;16.70;99.90;;;;;;5087700;28;10523;-58
2022/04/04 01:27:18;;;;;;;;;3.75;3.75;16.70;99.90;;;;;;5077426;28;10561;-57
2022/04/04 01:29:50;;;;;;;;;3.00;2.50;16.60;99.90;;;;;;5074408;28;10502;-58
2022/04/04 01:32:20;;;;;;;;;2.75;2.75;16.50;99.90;;;;;;5079668;28;11285;-57
2022/04/04 01:34:51;;;;;;;;;4.50;4.50;16.50;99.90;;;;;;5072748;28;10773;-57
2022/04/04 01:37:22;;;;;;;;;1.50;1.50;16.50;99.90;;;;;;5076566;28;10496;-57
2022/04/04 01:39:52;;;;;;;;;3.50;3.50;16.50;99.90;;;;;;5081466;28;10435;-58
2022/04/04 01:42:23;;;;;;;;;3.75;3.75;16.40;99.90;;;;;;5077753;28;11459;-57
2022/04/04 01:44:54;;;;;;;;;3.25;3.25;16.30;99.90;;;;;;5085352;28;10592;-58
2022/04/04 01:47:26;;;;;;;;;3.00;3.00;16.30;99.90;;;;;;5073581;28;10526;-56
2022/04/04 01:49:56;;;;;;;;;3.00;3.00;16.30;99.90;;;;;;5085713;28;10742;-57
2022/04/04 01:52:26;;;;;;;;;2.00;2.00;16.30;99.90;;;;;;5080293;28;10511;-58
2022/04/04 01:54:56;;;;;;;;;4.00;3.50;16.30;99.90;;;;;;5067873;28;10763;-58
2022/04/04 01:57:27;;;;;;;;;3.50;3.50;16.20;99.90;;;;;;5081940;28;10671;-57
2022/04/04 01:59:58;;;;;;;;;2.00;2.00;16.10;99.90;;;;;;5072862;28;10646;-56
2022/04/04 02:02:31;;;;;;;;;1.25;1.25;16.10;99.90;;;;;;5080032;28;10513;-58
2022/04/04 02:05:02;;;;;;;;;4.75;4.00;16.10;99.90;;;;;;5074397;28;11527;-57
2022/04/04 02:07:34;;;;;;;;;2.50;2.50;16.00;99.90;;;;;;5081995;28;10613;-57
2022/04/04 02:10:05;;;;;;;;;2.50;2.50;15.90;99.90;;;;;;5072426;28;10721;-57
2022/04/04 02:12:35;;;;;;;;;2.50;2.50;15.80;99.90;;;;;;5069067;28;11002;-57
2022/04/04 02:15:07;;;;;;;;;3.00;3.00;15.90;99.90;;;;;;5083089;28;10765;-57
2022/04/04 02:17:37;;;;;;;;;2.00;2.00;15.90;99.90;;;;;;5081971;28;10853;-58
2022/04/04 02:20:09;;;;;;;;;4.00;4.00;16.00;99.90;;;;;;5086929;28;10680;-58
2022/04/04 02:22:39;;;;;;;;;3.75;3.75;15.90;99.90;;;;;;5074998;28;10885;-59
2022/04/04 02:25:12;;;;;;;;;4.75;4.00;16.00;99.90;;;;;;5089005;28;10833;-59
2022/04/04 02:27:43;;;;;;;;;4.25;4.25;16.00;99.90;;;;;;5067096;28;10945;-58
2022/04/04 02:30:14;;;;;;;;;3.00;2.00;16.00;99.90;;;;;;5066214;28;10704;-56
2022/04/04 02:32:45;;;;;;;;;3.75;3.75;16.00;99.90;;;;;;5077773;28;10772;-57
2022/04/04 02:35:16;;;;;;;;;2.75;2.75;15.90;99.90;;;;;;5080361;28;10934;-58
2022/04/04 02:37:47;;;;;;;;;4.00;4.00;15.90;99.90;;;;;;5076224;28;10934;-57
2022/04/04 02:40:18;;;;;;;;;2.25;1.25;15.90;99.90;;;;;;5081910;28;10956;-57
2022/04/04 02:42:49;;;;;;;;;3.50;3.50;15.80;99.90;;;;;;5081799;28;10912;-58
2022/04/04 02:45:20;;;;;;;;;3.00;1.75;15.80;99.90;;;;;;5064060;28;11642;-57
2022/04/04 02:47:51;;;;;;;;;3.00;3.00;15.80;99.90;;;;;;5078428;28;11407;-56
2022/04/04 02:50:21;;;;;;;;;2.25;2.25;15.70;99.90;;;;;;5083325;28;10829;-57
2022/04/04 02:52:52;;;;;;;;;3.50;2.25;15.70;99.90;;;;;;5070970;28;10803;-56
2022/04/04 02:58:15;;;;;;;;;3.00;3.00;15.60;99.90;;;;;;5071800;28;10699;-57
2022/04/04 03:00:45;;;;;;;;;3.75;3.75;15.60;99.90;;;;;;5075729;28;10859;-57
2022/04/04 03:03:16;;;;;;;;;3.50;3.50;15.60;99.90;;;;;;5076000;28;12452;-57
2022/04/04 03:05:48;;;;;;;;;3.25;3.25;15.50;99.90;;;;;;5058854;28;10938;-57
2022/04/04 03:08:18;;;;;;;;;2.25;2.25;15.50;99.90;;;;;;5074837;28;10893;-54
2022/04/04 03:10:52;;;;;;;;;4.00;3.50;15.50;99.90;;;;;;5077596;28;10985;-54
2022/04/04 03:13:24;;;;;;;;;2.50;2.50;15.40;99.90;;;;;;5065992;28;11865;-57
2022/04/04 03:15:54;;;;;;;;;3.00;3.00;15.40;99.90;;;;;;5070256;28;10972;-56
2022/04/04 03:18:26;;;;;;;;;3.75;2.00;15.30;99.90;;;;;;5081253;28;11208;-57
2022/04/04 03:20:58;;;;;;;;;2.00;2.00;15.30;99.90;;;;;;5077469;28;10897;-56
2022/04/04 03:23:30;;;;;;;;;5.00;3.00;15.30;99.90;;;;;;5063524;28;11014;-57
2022/04/04 03:26:01;;;;;;;;;4.00;2.00;15.30;99.90;;;;;;5065344;28;10963;-55
2022/04/04 03:28:32;;;;;;;;;3.00;3.00;15.30;99.90;;;;;;5069750;28;11116;-56
2022/04/04 03:31:04;;;;;;;;;5.75;4.25;15.30;99.90;;;;;;5070453;28;11054;-56
2022/04/04 03:33:37;;;;;;;;;5.00;5.00;15.30;99.90;;;;;;5070708;28;12135;-56
2022/04/04 03:36:09;;;;;;;;;3.25;3.25;15.30;99.90;;;;;;5069274;28;11126;-56
2022/04/04 03:38:40;;;;;;;;;3.25;3.25;15.30;99.90;;;;;;5068146;28;11086;-54
2022/04/04 03:41:11;;;;;;;;;4.25;3.00;15.20;99.90;;;;;;5073225;28;11144;-52
2022/04/04 03:43:43;;;;;;;;;2.00;2.00;15.10;99.90;;;;;;5073580;28;11438;-54
2022/04/04 03:46:15;;;;;;;;;4.50;4.50;15.10;99.90;;;;;;5072665;28;10966;-54
2022/04/04 03:48:46;;;;;;;;;3.00;3.00;15.10;99.90;;;;;;5069525;28;11093;-53
2022/04/04 03:51:17;;;;;;;;;2.75;2.75;15.10;99.90;;;;;;5070694;28;11584;-52
2022/04/04 03:53:48;;;;;;;;;3.75;2.00;15.00;99.90;;;;;;5079697;28;10979;-53
2022/04/04 03:56:20;;;;;;;;;5.00;5.00;15.00;99.90;;;;;;5054809;28;11049;-53
2022/04/04 03:58:54;;;;;;;;;3.00;3.00;15.10;99.90;;;;;;5071259;28;11407;-54
2022/04/04 04:01:27;;;;;;;;;3.75;2.25;15.00;99.90;;;;;;5071451;28;11161;-53
2022/04/04 04:03:58;;;;;;;;;3.75;3.75;15.00;99.90;;;;;;5077895;27;11768;-54
2022/04/04 04:06:31;;;;;;;;;4.25;4.25;15.00;99.90;;;;;;5073235;28;11133;-51
2022/04/04 04:09:04;;;;;;;;;3.75;3.75;15.00;99.90;;;;;;5073681;28;10953;-52
2022/04/04 04:11:35;;;;;;;;;3.75;3.00;15.00;99.90;;;;;;5079774;28;11082;-59
2022/04/04 04:14:07;;;;;;;;;1.00;1.00;14.90;99.90;;;;;;5069795;28;11072;-54
2022/04/04 04:16:38;;;;;;;;;2.50;2.50;14.90;99.90;;;;;;5075393;28;10988;-55
2022/04/04 04:20:19;;;;;;;;;4.00;3.00;14.90;99.90;;;;;;5077110;28;11184;-63
2022/04/04 04:22:00;;;;;;;;;3.25;3.25;14.80;99.90;;;;;;5063081;28;11016;-53
2022/04/04 04:24:31;;;;;;;;;4.75;4.25;14.80;99.90;;;;;;5074311;27;11047;-53
2022/04/04 04:27:03;;;;;;;;;4.75;4.75;14.80;99.90;;;;;;5075082;28;11160;-53
2022/04/04 04:29:34;;;;;;;;;6.00;4.00;14.80;99.90;;;;;;5073291;28;11470;-52
2022/04/04 04:32:07;;;;;;;;;5.00;4.50;14.80;99.90;;;;;;5078232;28;11038;-51
2022/04/04 04:34:38;;;;;;;;;4.25;2.75;14.80;99.90;;;;;;5074625;28;11126;-55
2022/04/04 04:37:09;;;;;;;;;3.75;2.00;14.80;99.90;;;;;;5075169;28;11095;-55
2022/04/04 04:39:41;;;;;;;;;4.00;4.00;14.70;99.90;;;;;;5074343;28;11050;-58
2022/04/04 04:42:11;;;;;;;;;3.75;3.00;14.70;99.90;;;;;;5074454;28;11586;-56
2022/04/04 04:44:42;;;;;;;;;2.75;2.75;14.70;99.90;;;;;;5084285;28;11602;-56
2022/04/04 04:47:12;;;;;;;;;5.00;3.50;14.70;99.90;;;;;;5065006;28;12951;-56
2022/04/04 04:49:45;;;;;;;;;3.00;3.00;14.70;99.90;;;;;;5068938;28;11925;-52
2022/04/04 04:52:17;;;;;;;;;4.00;4.00;14.70;99.90;;;;;;5063511;28;11441;-55
2022/04/04 04:54:49;;;;;;;;;5.25;3.75;14.60;99.90;;;;;;5065882;28;11418;-53
2022/04/04 04:57:21;;;;;;;;;4.00;4.00;14.70;99.90;;;;;;5072664;28;11418;-54
2022/04/04 04:59:51;;;;;;;;;4.00;4.00;14.70;99.90;;;;;;5069359;28;11370;-51
2022/04/04 05:02:21;;;;;;;;;3.00;3.00;14.60;99.90;;;;;;5064221;28;11477;-57
2022/04/04 05:04:52;;;;;;;;;4.00;4.00;14.70;99.90;;;;;;5073880;28;11151;-57
2022/04/04 05:07:21;;;;;;;;;5.25;4.00;14.60;99.90;;;;;;5071278;28;11431;-56
2022/04/04 05:09:51;;;;;;;;;2.25;2.00;14.60;99.90;;;;;;5065292;28;11604;-58
2022/04/04 05:12:22;;;;;;;;;4.50;4.50;14.70;99.90;;;;;;5070060;28;11444;-60
2022/04/04 05:14:52;;;;;;;;;3.50;3.50;14.60;99.90;;;;;;5074831;28;12191;-60
2022/04/04 05:17:24;;;;;;;;;2.50;2.50;14.50;99.90;;;;;;5052210;28;11399;-59
2022/04/04 05:19:59;;;;;;;;;4.00;4.00;14.50;99.90;;;;;;5076368;28;11447;-57
2022/04/04 05:22:31;;;;;;;;;4.00;4.00;14.50;99.90;;;;;;5078056;28;11435;-59
2022/04/04 05:25:02;;;;;;;;;4.75;4.00;14.50;99.90;;;;;;5055052;28;11197;-59
2022/04/04 05:27:33;;;;;;;;;6.25;4.00;14.50;99.90;;;;;;5071183;28;13345;-61
2022/04/04 05:30:05;;;;;;;;;5.00;5.00;14.50;99.90;;;;;;5069235;27;11450;-62
2022/04/04 05:32:36;;;;;;;;;3.00;3.00;14.40;99.90;;;;;;5068005;28;11432;-63
2022/04/04 05:35:08;;;;;;;;;6.00;3.00;14.50;99.90;;;;;;5076642;28;12233;-61
2022/04/04 05:37:39;;;;;;;;;3.00;3.00;14.40;99.90;;;;;;5083292;28;11033;-61
2022/04/04 05:40:10;;;;;;;;;3.50;3.50;14.40;99.90;;;;;;5072333;28;11488;-62
2022/04/04 05:42:44;;;;;;;;;3.25;3.25;14.40;99.90;;;;;;5068055;28;12172;-62
2022/04/04 05:45:14;;;;;;;;;6.00;6.00;14.40;99.90;;;;;;5076440;28;11421;-62
2022/04/04 05:47:45;;;;;;;;;4.00;4.00;14.30;99.90;;;;;;5066457;28;11424;-61
2022/04/04 05:50:16;;;;;;;;;3.00;1.75;14.30;99.90;;;;;;5075649;28;11458;-61
2022/04/04 05:52:46;;;;;;;;;4.00;2.25;14.40;99.90;;;;;;5074909;28;12491;-62
2022/04/04 05:55:18;;;;;;;;;3.50;3.25;14.30;99.90;;;;;;5071930;28;10884;-62
2022/04/04 05:57:49;;;;;;;;;6.50;4.50;14.30;99.90;;;;;;5058794;28;11386;-61
2022/04/04 06:00:21;;;;;;;;;5.00;5.00;14.30;99.90;;;;;;5048867;28;11709;-64
2022/04/04 06:02:53;;;;;;;;;4.00;4.00;14.30;99.90;;;;;;5061334;28;12193;-63
2022/04/04 06:05:23;;;;;;;;;5.00;3.00;14.30;99.90;;;;;;5074924;28;11458;-62
2022/04/04 06:07:54;;;;;;;;;4.50;3.25;14.30;99.90;;;;;;5077057;28;11404;-63
2022/04/04 06:10:24;;;;;;;;;3.75;3.00;14.30;99.90;;;;;;5072389;28;11436;-64
2022/04/04 06:12:56;;;;;;;;;3.00;3.00;14.30;99.90;;;;;;5076007;28;11787;-63
2022/04/04 06:15:27;;;;;;;;;4.00;4.00;14.30;99.90;;;;;;5077432;28;11188;-63
2022/04/04 06:17:58;;;;;;;;;4.25;3.25;14.30;99.90;;;;;;5079012;28;11152;-63
2022/04/04 06:20:29;;;;;;;;;3.75;3.75;14.30;99.90;;;;;;5077350;28;11444;-63
2022/04/04 06:23:01;;;;;;;;;5.75;4.00;14.30;99.90;;;;;;5069289;28;11654;-62
2022/04/04 06:25:36;;;;;;;;;3.00;3.00;14.30;99.90;;;;;;5067656;28;11460;-62
2022/04/04 06:28:08;;;;;;;;;5.00;2.75;14.30;99.90;;;;;;5078957;28;11257;-63
2022/04/04 06:30:39;;;;;;;;;4.50;3.00;14.30;99.90;;;;;;5067758;28;11196;-62
2022/04/04 06:33:11;;;;;;;;;8.25;5.50;14.30;99.90;;;;;;5066557;28;11417;-63
2022/04/04 06:35:41;;;;;;;;;4.00;4.00;14.30;99.90;;;;;;5079358;28;11450;-64
2022/04/04 06:38:12;;;;;;;;;7.75;5.00;14.30;99.90;;;;;;5072498;28;11540;-62
2022/04/04 06:40:43;;;;;;;;;3.25;3.25;14.20;99.90;;;;;;5070062;28;11431;-63
2022/04/04 06:43:14;;;;;;;;;5.50;4.75;14.20;99.90;;;;;;5075999;28;11460;-60
2022/04/04 06:45:45;;;;;;;;;2.00;2.00;14.20;99.90;;;;;;5075007;28;12212;-61
2022/04/04 06:48:16;;;;;;;;;4.75;3.50;14.20;99.90;;;;;;5067755;28;12344;-61
2022/04/04 06:50:49;;;;;;;;;5.50;3.00;14.20;99.90;;;;;;5073351;28;11414;-61
2022/04/04 06:53:21;;;;;;;;;5.25;4.00;14.20;99.90;;;;;;5081407;28;11552;-62
2022/04/04 06:55:53;;;;;;;;;3.25;3.25;14.20;99.90;;;;;;5071208;28;11444;-61
2022/04/04 06:58:26;;;;;;;;;4.00;4.00;14.20;99.90;;;;;;5071570;28;11431;-61
2022/04/04 07:00:56;;;;;;;;;3.00;3.00;14.20;99.90;;;;;;5063852;28;11443;-61
2022/04/04 07:03:27;;;;;;;;;3.00;3.00;14.20;99.90;;;;;;5066772;28;12658;-63
2022/04/04 07:05:58;;;;;;;;;3.25;3.25;14.20;99.90;;;;;;5076518;28;13028;-63
2022/04/04 07:08:28;;;;;;;;;8.00;6.00;14.10;99.90;;;;;;5081544;28;11428;-63
2022/04/04 07:11:00;;;;;;;;;4.25;4.00;14.10;99.90;;;;;;5070711;28;11433;-62
2022/04/04 07:13:32;;;;;;;;;3.50;2.50;14.10;99.90;;;;;;5064787;28;11454;-61
2022/04/04 07:16:04;;;;;;;;;1.25;1.25;14.10;99.90;;;;;;5079290;28;11440;-61
2022/04/04 07:18:41;;;;;;;;;3.50;3.50;14.10;99.90;;;;;;5066231;28;11179;-62
2022/04/04 07:21:12;;;;;;;;;4.50;3.50;14.10;99.90;;;;;;5073461;28;11447;-63
2022/04/04 07:23:43;;;;;;;;;2.00;2.00;14.10;99.90;;;;;;5067261;28;12173;-61
2022/04/04 07:26:19;;;;;;;;;4.75;4.75;14.00;99.90;;;;;;5068131;28;11442;-61
2022/04/04 07:28:49;;;;;;;;;2.25;2.25;14.10;99.90;;;;;;5065753;28;11418;-61
2022/04/04 07:31:19;;;;;;;;;4.25;4.25;14.10;99.90;;;;;;5067792;28;11479;-61
2022/04/04 07:33:49;;;;;;;;;5.00;4.00;14.00;99.90;;;;;;5069464;28;11494;-61
2022/04/04 07:36:20;;;;;;;;;3.50;3.50;14.00;99.90;;;;;;5066326;28;12142;-62
2022/04/04 07:38:52;;;;;;;;;6.50;4.00;14.00;99.90;;;;;;5071421;28;12117;-60
2022/04/04 07:41:22;;;;;;;;;3.00;3.00;14.00;99.90;;;;;;5074533;28;11439;-61
2022/04/04 07:43:53;;;;;;;;;5.00;3.50;14.00;99.90;;;;;;5061258;28;12159;-61
2022/04/04 07:46:25;;;;;;;;;3.75;3.75;14.00;99.90;;;;;;5065435;28;12736;-62
2022/04/04 07:48:56;;;;;;;;;4.75;3.00;13.90;99.90;;;;;;5064558;28;12796;-62
2022/04/04 07:51:29;;;;;;;;;4.50;4.25;13.90;99.90;;;;;;5063456;28;11594;-62
2022/04/04 07:53:59;;;;;;;;;3.00;3.00;13.90;99.90;;;;;;5047450;28;11488;-62
2022/04/04 07:56:30;;;;;;;;;3.50;3.50;13.80;99.90;;;;;;5070822;28;11606;-63
2022/04/04 07:59:01;;;;;;;;;5.50;4.00;13.90;99.90;;;;;;5072157;28;12241;-61
2022/04/04 08:01:35;;;;;;;;;2.75;2.75;13.90;99.90;;;;;;5071013;28;12332;-63
2022/04/04 08:04:12;;;;;;;;;3.00;3.00;13.80;99.90;;;;;;5072750;28;11475;-62
2022/04/04 08:06:41;;;;;;;;;5.50;5.50;13.80;99.90;;;;;;5065701;28;11432;-62
2022/04/04 08:09:12;;;;;;;;;4.00;4.00;13.80;99.90;;;;;;5068603;28;11414;-62
2022/04/04 08:11:43;;;;;;;;;2.25;2.25;13.80;99.90;;;;;;5065991;28;11484;-62
2022/04/04 08:14:13;;;;;;;;;2.25;2.25;13.70;99.90;;;;;;5077850;28;11482;-62
2022/04/04 08:16:44;;;;;;;;;3.50;2.50;13.70;99.90;;;;;;5070337;28;11528;-62
2022/04/04 08:19:15;;;;;;;;;3.00;2.50;13.70;99.90;;;;;;5076122;28;11856;-60
2022/04/04 08:21:45;;;;;;;;;3.00;3.00;13.70;99.90;;;;;;5070587;28;11434;-63
2022/04/04 08:24:18;;;;;;;;;5.75;3.50;13.80;99.90;;;;;;5063213;28;11472;-62
2022/04/04 08:26:49;;;;;;;;;4.00;4.00;13.70;99.90;;;;;;5061767;28;11504;-62
2022/04/04 08:29:20;;;;;;;;;4.00;2.50;13.70;99.90;;;;;;5063915;28;11460;-62
2022/04/04 08:31:51;;;;;;;;;5.25;5.00;13.60;99.90;;;;;;5079822;28;11561;-63
2022/04/04 08:34:23;;;;;;;;;3.50;3.00;13.60;99.90;;;;;;5065125;28;11439;-62
2022/04/04 08:36:53;;;;;;;;;3.00;3.00;13.50;99.90;;;;;;5072842;28;11460;-61
2022/04/04 08:39:24;;;;;;;;;3.75;2.25;13.60;99.90;;;;;;5071874;28;11455;-62
2022/04/04 08:41:56;;;;;;;;;4.00;4.00;13.60;99.90;;;;;;5075407;28;11459;-63
2022/04/04 08:44:29;;;;;;;;;5.50;3.00;13.60;99.90;;;;;;5069597;28;11467;-63
2022/04/04 08:47:01;;;;;;;;;5.75;4.50;13.60;99.90;;;;;;5076199;28;11470;-63
2022/04/04 08:49:40;;;;;;;;;2.50;2.50;13.60;99.90;;;;;;5073988;28;11437;-62
2022/04/04 08:52:11;;;;;;;;;4.75;3.00;13.60;99.90;;;;;;5072273;28;11427;-63
2022/04/04 08:54:42;;;;;;;;;4.25;4.25;13.60;99.90;;;;;;5073437;27;12230;-63
2022/04/04 08:57:13;;;;;;;;;3.25;2.50;13.60;99.90;;;;;;5077682;28;11456;-63
2022/04/04 08:59:44;;;;;;;;;7.00;5.00;13.70;99.90;;;;;;5070367;28;11472;-62
2022/04/04 09:02:15;;;;;;;;;3.75;3.00;13.70;99.90;;;;;;5068305;28;11707;-62
2022/04/04 09:04:52;;;;;;;;;3.75;3.00;13.70;99.90;;;;;;5067136;28;12162;-62
2022/04/04 09:07:21;;;;;;;;;4.00;2.75;13.70;99.90;;;;;;5067717;28;11427;-62
2022/04/04 09:09:53;;;;;;;;;3.00;3.00;13.70;99.90;;;;;;5073591;28;11569;-62
2022/04/04 09:12:26;;;;;;;;;3.00;3.00;13.60;99.90;;;;;;5074619;28;11474;-62
2022/04/04 09:14:59;;;;;;;;;4.50;3.50;13.60;99.90;;;;;;5064727;28;11490;-61
2022/04/04 09:17:32;;;;;;;;;4.25;4.25;13.60;99.90;;;;;;5071916;28;11401;-63
2022/04/04 09:20:10;;;;;;;;;3.00;3.00;13.60;99.90;;;;;;5078749;28;11456;-61
2022/04/04 09:23:00;;;;;;;;;3.25;3.25;13.60;99.90;;;;;;5072656;28;11461;-61
2022/04/04 09:25:33;;;;;;;;;3.50;2.50;13.60;99.90;;;;;;5071078;28;11508;-63
2022/04/04 09:28:18;;;;;;;;;4.00;3.00;13.60;99.90;;;;;;5075313;28;11471;-62
2022/04/04 09:31:07;;;;;;;;;2.25;2.25;13.60;99.90;;;;;;5066652;28;11497;-62
2022/04/04 09:33:38;;;;;;;;;1.50;1.50;13.60;99.90;;;;;;5067435;28;11565;-61
2022/04/04 09:36:09;;;;;;;;;5.00;3.25;13.50;99.90;;;;;;5066320;28;11437;-61
2022/04/04 09:38:45;;;;;;;;;3.50;3.50;13.50;99.90;;;;;;5068899;28;12224;-63
2022/04/04 09:41:17;;;;;;;;;3.50;2.00;13.50;99.90;;;;;;5065327;28;12462;-63
2022/04/04 09:43:57;;;;;;;;;4.00;3.00;13.50;99.90;;;;;;5061197;28;11423;-63
2022/04/04 09:46:39;;;;;;;;;3.50;2.00;13.50;99.90;;;;;;5065223;28;11412;-62
2022/04/04 09:49:16;;;;;;;;;3.50;3.50;13.50;99.90;;;;;;5066623;28;11455;-63
2022/04/04 09:51:51;;;;;;;;;3.75;3.75;13.50;99.90;;;;;;5072884;28;11423;-63
2022/04/04 09:54:29;;;;;;;;;5.75;5.75;13.50;99.90;;;;;;5075062;28;12120;-62
2022/04/04 09:57:16;;;;;;;;;3.75;3.75;13.50;99.90;;;;;;5072611;28;11534;-62
2022/04/04 09:59:48;;;;;;;;;3.00;3.00;13.50;99.90;;;;;;5063283;28;11449;-62
2022/04/04 10:02:21;;;;;;;;;6.25;6.00;13.50;99.90;;;;;;5073926;28;11573;-63
2022/04/04 10:04:54;;;;;;;;;6.00;6.00;13.50;99.90;;;;;;5072103;28;11593;-61
2022/04/04 10:07:26;;;;;;;;;6.50;6.50;13.40;99.90;;;;;;5061161;28;12237;-62
2022/04/04 10:09:57;;;;;;;;;1.75;1.75;13.40;99.90;;;;;;5067103;28;12255;-63
2022/04/04 10:12:27;;;;;;;;;2.00;2.00;13.50;99.90;;;;;;5068240;28;11520;-62
2022/04/04 10:15:00;;;;;;;;;4.50;4.50;13.40;99.90;;;;;;5083392;28;11435;-64
2022/04/04 10:17:31;;;;;;;;;4.75;3.00;13.50;99.90;;;;;;5063760;28;11445;-61
2022/04/04 10:20:02;;;;;;;;;3.00;1.00;13.40;99.90;;;;;;5069825;28;11435;-64
2022/04/04 10:22:33;;;;;;;;;2.00;2.00;13.40;99.90;;;;;;5063532;28;11465;-64
2022/04/04 10:25:07;;;;;;;;;3.00;3.00;13.40;99.90;;;;;;5062104;28;11595;-64
2022/04/04 10:27:38;;;;;;;;;3.00;3.00;13.40;99.90;;;;;;5062923;28;11436;-63
2022/04/04 10:30:10;;;;;;;;;2.00;2.00;13.40;99.90;;;;;;5070959;28;11493;-64
2022/04/04 10:32:54;;;;;;;;;3.00;3.00;13.40;99.90;;;;;;5071928;28;11447;-62
2022/04/04 10:35:27;;;;;;;;;5.00;3.50;13.40;99.90;;;;;;5065839;28;11420;-63
2022/04/04 10:38:03;;;;;;;;;2.25;2.25;13.40;99.90;;;;;;5071267;28;11412;-62
2022/04/04 10:40:35;;;;;;;;;4.25;4.25;13.40;99.90;;;;;;5070945;28;12135;-62
2022/04/04 10:43:11;;;;;;;;;5.50;4.25;13.30;99.90;;;;;;5065824;28;11423;-62
2022/04/04 10:45:58;;;;;;;;;4.75;3.50;13.30;99.90;;;;;;5076252;28;11500;-63
2022/04/04 10:48:44;;;;;;;;;4.00;2.75;13.30;99.90;;;;;;5067977;28;11647;-62
2022/04/04 10:51:20;;;;;;;;;1.75;1.75;13.20;99.90;;;;;;5068491;28;11498;-62
2022/04/04 10:54:02;;;;;;;;;3.00;3.00;13.20;99.90;;;;;;5074798;28;12891;-61
2022/04/04 10:56:46;;;;;;;;;2.25;2.25;13.30;99.90;;;;;;5067960;28;12197;-62
2022/04/04 10:59:18;;;;;;;;;2.00;2.00;13.30;99.90;;;;;;5067512;28;11466;-63
2022/04/04 11:02:02;;;;;;;;;2.75;2.75;13.30;99.90;;;;;;5072069;28;11410;-63
2022/04/04 11:07:37;;;;;;;;;4.50;4.50;13.30;99.90;;;;;;5061507;28;11614;-62
2022/04/04 11:07:41;;;;;;;;;2.50;2.50;13.30;99.90;;;;;;5070273;28;12190;-62
2022/04/04 11:10:11;;;;;;;;;3.00;3.00;13.20;99.90;;;;;;5068957;28;11431;-62
2022/04/04 11:13:17;;;;;;;;;3.00;3.00;13.20;99.90;;;;;;5073060;28;11478;-62
2022/04/04 11:15:53;;;;;;;;;3.25;3.25;13.20;99.90;;;;;;5043747;28;11427;-62
2022/04/04 11:18:32;;;;;;;;;4.75;2.75;13.20;99.90;;;;;;5077005;28;11494;-62
2022/04/04 11:21:03;;;;;;;;;3.25;2.50;13.20;99.90;;;;;;5077265;28;12316;-63
2022/04/04 11:23:37;;;;;;;;;6.25;5.25;13.20;99.90;;;;;;5065663;28;11462;-63
2022/04/04 11:26:08;;;;;;;;;3.00;2.00;13.20;99.90;;;;;;5076869;28;11413;-63
2022/04/04 11:28:42;;;;;;;;;4.00;4.00;13.10;99.90;;;;;;5073901;28;11486;-63
2022/04/04 11:31:13;;;;;;;;;2.75;2.75;13.10;99.90;;;;;;5073551;28;11480;-62
2022/04/04 11:33:48;;;;;;;;;5.50;5.50;13.10;99.90;;;;;;5079959;28;11463;-62
2022/04/04 11:36:42;;;;;;;;;4.75;3.00;13.10;99.90;;;;;;5083072;28;11705;-62
2022/04/04 11:39:17;;;;;;;;;3.00;3.00;13.20;99.90;;;;;;5075021;28;11440;-63
2022/04/04 11:41:52;;;;;;;;;3.25;3.25;13.10;99.90;;;;;;5080576;28;11463;-63
2022/04/04 11:44:27;;;;;;;;;2.25;2.25;13.10;99.90;;;;;;5071017;28;11463;-63
2022/04/04 11:47:07;;;;;;;;;3.00;1.75;13.10;99.90;;;;;;5069148;28;11426;-63
2022/04/04 11:49:42;;;;;;;;;2.00;2.00;13.20;99.90;;;;;;5067280;28;11488;-63
2022/04/04 11:52:18;;;;;;;;;4.00;4.00;13.20;99.90;;;;;;5080920;28;11439;-62
2022/04/04 11:54:50;;;;;;;;;3.00;3.00;13.20;99.90;;;;;;5079772;28;12436;-63
2022/04/04 11:57:23;;;;;;;;;3.00;3.00;13.10;99.90;;;;;;5075591;28;11508;-62
2022/04/04 11:59:56;;;;;;;;;2.00;2.00;13.10;99.90;;;;;;5068555;28;11426;-63
2022/04/04 12:02:31;;;;;;;;;3.25;3.25;13.10;99.90;;;;;;5048586;28;12609;-61
2022/04/04 12:05:02;;;;;;;;;4.00;3.00;13.10;99.90;;;;;;5067555;28;11511;-64
2022/04/04 12:07:33;;;;;;;;;2.50;2.25;13.10;99.90;;;;;;5074968;28;11416;-63
2022/04/04 12:10:04;;;;;;;;;3.00;3.00;13.10;99.90;;;;;;5081789;28;11411;-62
2022/04/04 12:12:34;;;;;;;;;3.00;3.00;13.10;99.90;;;;;;5060713;28;11490;-60
2022/04/04 12:15:04;;;;;;;;;4.00;4.00;13.20;99.90;;;;;;5070783;28;11524;-61
2022/04/04 12:17:35;;;;;;;;;4.75;4.75;13.20;99.90;;;;;;5071533;28;11486;-62
2022/04/04 12:20:11;;;;;;;;;2.00;2.00;13.20;99.90;;;;;;5068567;28;11471;-61
2022/04/04 12:25:31;;;;;;;;;4.00;2.50;13.20;99.90;;;;;;5063652;28;11418;-64
2022/04/04 12:28:03;;;;;;;;;2.00;2.00;13.20;99.90;;;;;;5079025;28;12289;-62
2022/04/04 12:30:37;;;;;;;;;4.25;4.25;13.20;99.90;;;;;;5073073;28;11431;-62
2022/04/04 12:33:14;;;;;;;;;3.00;3.00;13.20;99.90;;;;;;5074298;28;11462;-61
2022/04/04 12:35:49;;;;;;;;;4.00;3.00;13.10;99.90;;;;;;5069873;28;11460;-61
2022/04/04 12:38:39;;;;;;;;;2.00;2.00;13.10;99.90;;;;;;5078429;28;11587;-62
2022/04/04 12:41:11;;;;;;;;;3.50;3.50;13.10;99.90;;;;;;5065926;28;11527;-62
2022/04/04 12:43:48;;;;;;;;;3.00;2.50;13.10;99.90;;;;;;5077466;28;11446;-61
2022/04/04 12:46:31;;;;;;;;;5.25;4.00;13.10;99.90;;;;;;5071531;28;11466;-62
2022/04/04 12:49:30;;;;;;;;;3.50;3.50;13.10;99.90;;;;;;5081209;28;11477;-62
2022/04/04 12:52:20;;;;;;;;;4.75;4.75;13.10;99.90;;;;;;5064311;28;11464;-63
2022/04/04 12:54:54;;;;;;;;;2.00;2.00;13.10;99.90;;;;;;5071677;28;12611;-62
2022/04/04 12:57:28;;;;;;;;;4.50;4.50;13.10;99.90;;;;;;5078421;28;11449;-63
2022/04/04 12:59:58;;;;;;;;;3.50;3.25;13.10;99.90;;;;;;5074670;28;11466;-63
2022/04/04 13:02:34;;;;;;;;;4.25;4.25;13.10;99.90;;;;;;5065844;28;12224;-62
2022/04/04 13:05:15;;;;;;;;;3.50;3.50;13.10;99.90;;;;;;5073914;28;11494;-63
2022/04/04 13:07:54;;;;;;;;;3.25;2.75;13.10;99.90;;;;;;5069165;28;11443;-63
2022/04/04 13:10:26;;;;;;;;;2.00;2.00;13.10;99.90;;;;;;5084285;28;13350;-63
2022/04/04 13:13:15;;;;;;;;;3.50;3.50;13.10;99.90;;;;;;5077760;28;11550;-63
2022/04/04 13:15:47;;;;;;;;;3.75;3.00;13.10;99.90;;;;;;5072623;28;11442;-62
2022/04/04 13:18:39;;;;;;;;;4.75;4.75;13.10;99.90;;;;;;5077107;28;12190;-63
2022/04/04 13:21:09;;;;;;;;;6.50;3.00;13.10;99.90;;;;;;5074020;28;11433;-64